Yang Li Hu — BOGE — position and weather

sailwx.info

Track history (hours):
 
Tides and Currents Weather Stations Pressure Air Temp Water Temp Dewpoint Dewpoint Depression Visibility Wind Speed Wind Dir Waves Ship Positions

Yang Li Hu

Last reported at 2015-Mar-05 19:24 UTC. Time now 2015-Mar-07 00:07 UTC.
Position N 37°31' E 023°46'.

Length 244 m; draft 9.4 m.

Type: Tanker. MMSI: 413975000.

Date/timePositionNaut miles runAvg speedWind from/ knotsBaromVisibWave heightAir tempDewpointWater temp
2015-Mar-05 19:24N 37°31' E 023°46'1011.7
2015-Mar-05 18:33N 37°41' E 023°41'1111.3
2015-Mar-05 17:33N 37°51' E 023°37'7 7.3
2015-Mar-05 16:33N 37°58' E 023°33'4 4.1
2015-Mar-05 15:30N 38°02' E 023°31'0 0.0
2015-Mar-05 14:18N 38°02' E 023°31'0 0.0
2015-Mar-05 13:33N 38°02' E 023°31'0 0.0
2015-Mar-05 12:30N 38°02' E 023°31'0 0.0
2015-Mar-05 11:15N 38°02' E 023°31'0 0.0
2015-Mar-05 10:24N 38°02' E 023°31'0 0.0
2015-Mar-05 09:30N 38°02' E 023°31'0 0.0
2015-Mar-05 08:33N 38°02' E 023°31'0 0.0
2015-Mar-05 07:24N 38°02' E 023°31'0 0.0
2015-Mar-05 06:24N 38°02' E 023°31'0 0.0
2015-Mar-05 05:30N 38°02' E 023°31'0 0.0
2015-Mar-05 04:18N 38°02' E 023°31'0 0.0
2015-Mar-05 03:24N 38°02' E 023°31'0 0.0
2015-Mar-05 02:12N 38°02' E 023°31'0 0.0
2015-Mar-05 01:30N 38°02' E 023°31'0 0.0
2015-Mar-05 00:24N 38°02' E 023°31'0 0.0
2015-Mar-04 23:30N 38°02' E 023°31'0 0.0
2015-Mar-04 22:30N 38°02' E 023°31'0 0.0
2015-Mar-04 21:27N 38°02' E 023°31'0 0.0
2015-Mar-04 20:33N 38°02' E 023°31'0 0.0
2015-Mar-04 19:27N 38°02' E 023°31'0 0.0
2015-Mar-04 18:33N 38°02' E 023°31'0 0.0
2015-Mar-04 17:30N 38°02' E 023°31'0 0.0
2015-Mar-04 16:21N 38°02' E 023°31'0 0.0
2015-Mar-04 15:24N 38°02' E 023°31'0 0.0
2015-Mar-04 14:30N 38°02' E 023°31'0 0.0
2015-Mar-04 13:27N 38°02' E 023°31'0 0.0
2015-Mar-04 12:33N 38°02' E 023°31'0 0.0
2015-Mar-04 11:27N 38°02' E 023°31'0 0.0
2015-Mar-04 10:18N 38°02' E 023°31'0 0.0
2015-Mar-04 09:24N 38°02' E 023°31'0 0.0
2015-Mar-04 08:30N 38°02' E 023°31'0 0.0
2015-Mar-04 07:12N 38°02' E 023°31'0 0.0
2015-Mar-04 06:27N 38°02' E 023°31'0 0.0
2015-Mar-04 05:33N 38°02' E 023°31'0 0.0
2015-Mar-04 04:12N 38°02' E 023°31'0 0.0
2015-Mar-04 03:18N 38°02' E 023°31'0 0.0
2015-Mar-04 01:21N 38°02' E 023°31'0 0.0
2015-Mar-03 21:33N 38°02' E 023°31'0 0.0
2015-Mar-03 20:24N 38°02' E 023°31'0 0.0
2015-Mar-03 19:09N 38°02' E 023°31'0 0.0
2015-Mar-03 13:29N 38°02' E 023°31'1 0.9
2015-Mar-03 12:29N 38°01' E 023°31'0 0.0
2015-Mar-03 10:32N 38°01' E 023°31'0 0.0
2015-Mar-03 08:32N 38°01' E 023°31'3 3.2
2015-Mar-03 07:33N 37°58' E 023°33'5 4.6
2015-Mar-03 06:33N 37°55' E 023°36'3 2.5
2015-Mar-03 05:33N 37°53' E 023°34'7 7.1
2015-Mar-03 04:33N 37°48' E 023°41'1111.2
2015-Mar-03 03:33N 37°37' E 023°44'1212.2
2015-Mar-03 02:33N 37°25' E 023°42'  
2015-Feb-26 09:11N 36°01' W 005°08'915.2
2015-Feb-26 08:33N 36°02' W 005°19'5 3.9
2015-Feb-26 07:12N 36°06' W 005°24'0 0.1
2015-Feb-26 06:30N 36°06' W 005°24'0 0.0
2015-Feb-26 05:33N 36°06' W 005°24'0 0.0
2015-Feb-26 04:33N 36°06' W 005°24'0 0.0
2015-Feb-26 03:33N 36°06' W 005°24'0 0.0
2015-Feb-26 02:30N 36°06' W 005°24'0 0.2
2015-Feb-26 01:30N 36°05' W 005°24'0 0.1
2015-Feb-26 00:34N 36°06' W 005°24'5 4.7
2015-Feb-25 23:34N 36°01' W 005°23'  
Track history (hours):
 
Tides and Currents Weather Stations Pressure Air Temp Water Temp Dewpoint Dewpoint Depression Visibility Wind Speed Wind Dir Waves Ship Positions

Yang Li Hu

Last reported at 2015-Mar-05 19:24 UTC. Time now 2015-Mar-07 00:07 UTC.
Position N 37°31' E 023°46'.

Length 244 m; draft 9.4 m.

Type: Tanker. MMSI: 413975000.

Date/timePositionNaut miles runAvg speedWind from/ knotsBaromVisibWave heightAir tempDewpointWater temp
2015-Mar-05 19:24N 37°31' E 023°46'1011.7
2015-Mar-05 18:33N 37°41' E 023°41'1111.3
2015-Mar-05 17:33N 37°51' E 023°37'7 7.3
2015-Mar-05 16:33N 37°58' E 023°33'4 4.1
2015-Mar-05 15:30N 38°02' E 023°31'0 0.0
2015-Mar-05 14:18N 38°02' E 023°31'0 0.0
2015-Mar-05 13:33N 38°02' E 023°31'0 0.0
2015-Mar-05 12:30N 38°02' E 023°31'0 0.0
2015-Mar-05 11:15N 38°02' E 023°31'0 0.0
2015-Mar-05 10:24N 38°02' E 023°31'0 0.0
2015-Mar-05 09:30N 38°02' E 023°31'0 0.0
2015-Mar-05 08:33N 38°02' E 023°31'0 0.0
2015-Mar-05 07:24N 38°02' E 023°31'0 0.0
2015-Mar-05 06:24N 38°02' E 023°31'0 0.0
2015-Mar-05 05:30N 38°02' E 023°31'0 0.0
2015-Mar-05 04:18N 38°02' E 023°31'0 0.0
2015-Mar-05 03:24N 38°02' E 023°31'0 0.0
2015-Mar-05 02:12N 38°02' E 023°31'0 0.0
2015-Mar-05 01:30N 38°02' E 023°31'0 0.0
2015-Mar-05 00:24N 38°02' E 023°31'0 0.0
2015-Mar-04 23:30N 38°02' E 023°31'0 0.0
2015-Mar-04 22:30N 38°02' E 023°31'0 0.0
2015-Mar-04 21:27N 38°02' E 023°31'0 0.0
2015-Mar-04 20:33N 38°02' E 023°31'0 0.0
2015-Mar-04 19:27N 38°02' E 023°31'0 0.0
2015-Mar-04 18:33N 38°02' E 023°31'0 0.0
2015-Mar-04 17:30N 38°02' E 023°31'0 0.0
2015-Mar-04 16:21N 38°02' E 023°31'0 0.0
2015-Mar-04 15:24N 38°02' E 023°31'0 0.0
2015-Mar-04 14:30N 38°02' E 023°31'0 0.0
2015-Mar-04 13:27N 38°02' E 023°31'0 0.0
2015-Mar-04 12:33N 38°02' E 023°31'0 0.0
2015-Mar-04 11:27N 38°02' E 023°31'0 0.0
2015-Mar-04 10:18N 38°02' E 023°31'0 0.0
2015-Mar-04 09:24N 38°02' E 023°31'0 0.0
2015-Mar-04 08:30N 38°02' E 023°31'0 0.0
2015-Mar-04 07:12N 38°02' E 023°31'0 0.0
2015-Mar-04 06:27N 38°02' E 023°31'0 0.0
2015-Mar-04 05:33N 38°02' E 023°31'0 0.0
2015-Mar-04 04:12N 38°02' E 023°31'0 0.0
2015-Mar-04 03:18N 38°02' E 023°31'0 0.0
2015-Mar-04 01:21N 38°02' E 023°31'0 0.0
2015-Mar-03 21:33N 38°02' E 023°31'0 0.0
2015-Mar-03 20:24N 38°02' E 023°31'0 0.0
2015-Mar-03 19:09N 38°02' E 023°31'0 0.0
2015-Mar-03 13:29N 38°02' E 023°31'1 0.9
2015-Mar-03 12:29N 38°01' E 023°31'0 0.0
2015-Mar-03 10:32N 38°01' E 023°31'0 0.0
2015-Mar-03 08:32N 38°01' E 023°31'3 3.2
2015-Mar-03 07:33N 37°58' E 023°33'5 4.6
2015-Mar-03 06:33N 37°55' E 023°36'3 2.5
2015-Mar-03 05:33N 37°53' E 023°34'7 7.1
2015-Mar-03 04:33N 37°48' E 023°41'1111.2
2015-Mar-03 03:33N 37°37' E 023°44'1212.2
2015-Mar-03 02:33N 37°25' E 023°42'  
2015-Feb-26 09:11N 36°01' W 005°08'915.2
2015-Feb-26 08:33N 36°02' W 005°19'5 3.9
2015-Feb-26 07:12N 36°06' W 005°24'0 0.1
2015-Feb-26 06:30N 36°06' W 005°24'0 0.0
2015-Feb-26 05:33N 36°06' W 005°24'0 0.0
2015-Feb-26 04:33N 36°06' W 005°24'0 0.0
2015-Feb-26 03:33N 36°06' W 005°24'0 0.0
2015-Feb-26 02:30N 36°06' W 005°24'0 0.2
2015-Feb-26 01:30N 36°05' W 005°24'0 0.1
2015-Feb-26 00:34N 36°06' W 005°24'5 4.7
2015-Feb-25 23:34N 36°01' W 005°23'  

Dump ship's entire track history